Time;durP1;ratioP1;P1;durP2;ratioP2;P2;SDS_P1;SDS_P2;PMS_P1;PMS_P2;Temp;Humidity;BMP_temperature;BMP_pressure;BME280_temperature;BME280_humidity;BME280_pressure;Samples;Min_cycle;Max_cycle;Signal;HPM_P1;HPM_P2
2022/12/11 00:02:59;;;;;;;59.90;31.40;;;;;;;-1.74;100.00;99275.16;10379664;28;20062;-72
2022/12/11 00:08:01;;;;;;;54.40;30.98;;;;;;;-1.71;100.00;99262.28;10379219;28;20049;-72
2022/12/11 00:13:03;;;;;;;60.50;32.88;;;;;;;-1.79;100.00;99262.25;10379503;28;20042;-72
2022/12/11 00:18:05;;;;;;;54.47;32.33;;;;;;;-1.71;100.00;99268.31;10379359;28;20484;-72
2022/12/11 00:23:07;;;;;;;61.28;33.95;;;;;;;-1.75;100.00;99270.84;10379003;28;20403;-72
2022/12/11 00:28:09;;;;;;;52.55;29.55;;;;;;;-1.81;100.00;99277.69;10378451;28;20088;-71
2022/12/11 00:33:12;;;;;;;57.92;32.00;;;;;;;-1.74;100.00;99281.16;10378818;28;20052;-72
2022/12/11 00:38:16;;;;;;;63.10;34.25;;;;;;;-1.65;100.00;99270.03;10378887;28;20054;-72
2022/12/11 00:43:18;;;;;;;57.75;33.50;;;;;;;-1.73;100.00;99275.16;10378407;28;20041;-72
2022/12/11 00:48:20;;;;;;;61.47;32.95;;;;;;;-1.83;100.00;99273.38;10378296;28;20084;-71
2022/12/11 00:53:21;;;;;;;58.30;32.55;;;;;;;-1.75;100.00;99276.88;10359982;28;20041;-71
2022/12/11 00:58:23;;;;;;;58.60;32.78;;;;;;;-1.85;100.00;99281.09;10377689;28;20050;-72
2022/12/11 01:03:25;;;;;;;62.13;31.92;;;;;;;-1.84;100.00;99275.09;10377947;28;20046;-71
2022/12/11 01:08:27;;;;;;;63.97;33.95;;;;;;;-1.96;100.00;99277.59;10376579;28;20046;-71
2022/12/11 01:13:28;;;;;;;61.65;33.78;;;;;;;-2.01;100.00;99273.28;10378025;28;20042;-72
2022/12/11 01:18:30;;;;;;;62.05;33.20;;;;;;;-2.05;100.00;99287.84;10375994;28;20057;-71
2022/12/11 01:23:32;;;;;;;68.07;33.63;;;;;;;-2.10;100.00;99279.22;10374937;28;20056;-71
2022/12/11 01:28:34;;;;;;;58.58;32.40;;;;;;;-2.14;100.00;99287.78;10376376;28;20049;-72
2022/12/11 01:33:36;;;;;;;67.57;32.97;;;;;;;-2.16;100.00;99290.34;10358913;28;20038;-71
2022/12/11 01:38:38;;;;;;;61.45;33.30;;;;;;;-2.19;100.00;99292.03;10383997;28;20112;-71
2022/12/11 01:44:02;;;;;;;55.05;30.88;;;;;;;-2.30;100.00;99286.81;10384080;28;20117;-71
2022/12/11 01:49:10;;;;;;;62.25;33.22;;;;;;;-2.28;100.00;99290.25;10383655;28;20050;-71
2022/12/11 01:54:13;;;;;;;;;;;;;;;-2.10;100.00;99286.94;10367852;28;20038;-71
2022/12/11 01:59:19;;;;;;;48.53;29.27;;;;;;;-2.11;100.00;99286.09;10390755;23;19928;-74
2022/12/11 02:04:22;;;;;;;52.85;30.70;;;;;;;-2.13;100.00;99282.63;10405816;28;20045;-74
2022/12/11 02:09:26;;;;;;;53.30;31.35;;;;;;;-2.18;100.00;99283.44;10424960;28;20076;-74
2022/12/11 02:15:10;;;;;;;52.03;30.23;;;;;;;-2.05;100.00;99283.53;10406532;28;20049;-73
2022/12/11 02:20:22;;;;;;;47.75;29.35;;;;;;;-2.18;100.00;99273.16;10409572;28;20068;-74
2022/12/11 02:25:31;;;;;;;48.30;27.00;;;;;;;-2.13;100.00;99274.91;10405268;28;20415;-73
2022/12/11 02:30:38;;;;;;;47.80;28.98;;;;;;;-2.22;100.00;99276.56;10425171;28;20045;-73
2022/12/11 02:35:43;;;;;;;45.83;28.75;;;;;;;-2.12;100.00;99266.34;10405217;28;20491;-73
2022/12/11 02:40:48;;;;;;;42.00;25.90;;;;;;;-1.99;100.00;99266.41;10422319;28;20452;-73
2022/12/11 02:45:52;;;;;;;40.83;25.67;;;;;;;-2.36;100.00;99267.00;10421666;28;20421;-73
2022/12/11 02:50:56;;;;;;;39.70;25.08;;;;;;;-2.33;100.00;99258.47;10424846;28;20037;-74
2022/12/11 02:56:13;;;;;;;40.92;25.40;;;;;;;-2.42;100.00;99277.28;10405209;28;20048;-73
2022/12/11 03:01:15;;;;;;;44.10;26.73;;;;;;;-2.40;100.00;99270.41;10421242;28;20052;-73
2022/12/11 03:06:20;;;;;;;45.40;26.50;;;;;;;-2.16;100.00;99274.91;10420122;28;20045;-74
2022/12/11 03:11:22;;;;;;;41.20;25.15;;;;;;;-2.14;100.00;99277.47;10407700;28;20052;-74
2022/12/11 03:16:33;;;;;;;40.50;25.73;;;;;;;-2.17;100.00;99270.59;10422323;28;20049;-74
2022/12/11 03:21:44;;;;;;;30.38;23.42;;;;;;;-2.21;100.00;99273.13;10420734;28;20431;-74
2022/12/11 03:26:54;;;;;;;36.60;25.00;;;;;;;-2.21;100.00;99281.72;10420166;28;20095;-74
2022/12/11 03:32:07;;;;;;;30.73;22.83;;;;;;;-2.26;100.00;99278.22;10421306;28;20047;-71
2022/12/11 03:37:12;;;;;;;32.20;22.83;;;;;;;-2.26;100.00;99285.09;10419769;28;20052;-71
2022/12/11 03:42:17;;;;;;;34.58;23.23;;;;;;;-2.30;100.00;99282.53;10417868;28;20042;-71
2022/12/11 03:47:23;;;;;;;38.95;23.73;;;;;;;-2.46;100.00;99282.38;10418689;28;20491;-71
2022/12/11 03:52:27;;;;;;;44.38;23.90;;;;;;;-2.45;100.00;99287.53;10401314;28;20046;-71
2022/12/11 03:57:31;;;;;;;38.90;23.48;;;;;;;-2.31;100.00;99285.91;10419631;28;20052;-71
2022/12/11 04:02:33;;;;;;;34.83;24.38;;;;;;;-2.38;100.00;99278.16;10418723;28;20503;-71
2022/12/11 04:07:35;;;;;;;32.17;23.70;;;;;;;-2.55;100.00;99288.31;10417381;28;20422;-71
2022/12/11 04:12:36;;;;;;;35.42;24.60;;;;;;;-2.62;100.00;99279.66;10418652;28;20095;-71
2022/12/11 04:28:18;;;;;;;43.17;26.77;;;;;;;-2.51;100.00;99297.78;10418091;28;20490;-71
2022/12/11 04:33:20;;;;;;;41.25;26.65;;;;;;;-2.55;100.00;99289.16;10417553;28;20042;-71
2022/12/11 04:38:21;;;;;;;46.22;27.20;;;;;;;-2.68;100.00;99287.34;10420710;28;20049;-71
2022/12/11 04:43:23;;;;;;;31.90;21.75;;;;;;;-2.76;100.00;99270.09;10417287;28;20043;-71
2022/12/11 04:48:25;;;;;;;45.63;23.98;;;;;;;-2.65;100.00;99266.78;10400971;28;20053;-71
2022/12/11 04:53:27;;;;;;;36.97;23.35;;;;;;;-2.64;100.00;99273.66;10417018;28;20079;-71
2022/12/11 04:58:29;;;;;;;26.65;20.90;;;;;;;-2.58;100.00;99277.97;10416316;28;20148;-71
2022/12/11 05:03:30;;;;;;;54.17;25.23;;;;;;;-2.56;100.00;99263.44;10418031;28;20096;-71
2022/12/11 05:08:34;;;;;;;34.13;24.05;;;;;;;-2.54;100.00;99260.00;10415781;28;20053;-71
2022/12/11 05:13:36;;;;;;;53.28;27.98;;;;;;;-2.47;100.00;99260.06;10416813;28;20091;-71
2022/12/11 05:18:38;;;;;;;58.10;27.92;;;;;;;-2.52;100.00;99262.63;10415991;28;20189;-71
2022/12/11 05:23:41;;;;;;;49.63;26.77;;;;;;;-2.66;100.00;99253.88;10402277;28;20038;-71
2022/12/11 05:28:43;;;;;;;53.90;27.98;;;;;;;-2.75;100.00;99252.09;10415120;28;20046;-71
2022/12/11 05:33:47;;;;;;;43.05;25.58;;;;;;;-2.75;100.00;99254.66;10415736;28;20159;-71
2022/12/11 05:38:49;;;;;;;40.08;25.00;;;;;;;-3.00;100.00;99250.16;10398276;28;20041;-71
2022/12/11 05:43:52;;;;;;;37.80;24.77;;;;;;;-3.17;100.00;99244.84;10418404;28;20041;-71
2022/12/11 05:48:59;;;;;;;36.97;24.15;;;;;;;-3.15;100.00;99241.44;10415897;28;20037;-71
2022/12/11 05:54:01;;;;;;;28.95;22.52;;;;;;;-3.11;100.00;99237.19;10416705;28;20034;-71
2022/12/11 05:59:04;;;;;;;28.75;20.83;;;;;;;-3.08;100.00;99247.50;10415265;28;20414;-72
2022/12/11 06:04:08;;;;;;;29.02;20.73;;;;;;;-3.08;100.00;99250.94;10414881;28;20052;-71
2022/12/11 06:09:14;;;;;;;28.10;21.23;;;;;;;-3.14;100.00;99244.88;10416785;28;20046;-71
2022/12/11 06:14:16;;;;;;;31.35;21.33;;;;;;;-3.43;100.00;99257.41;10382258;28;20038;-71
2022/12/11 06:19:18;;;;;;;25.38;18.92;;;;;;;-3.28;100.00;99247.28;10397955;28;20054;-71
2022/12/11 06:24:20;;;;;;;27.08;20.23;;;;;;;-3.10;100.00;99255.22;10422504;28;20117;-71
2022/12/11 06:29:21;;;;;;;25.70;18.98;;;;;;;-3.22;100.00;99257.66;10424986;28;20045;-71
2022/12/11 06:34:23;;;;;;;23.23;18.38;;;;;;;-3.18;100.00;99245.69;10422744;28;20053;-71
2022/12/11 06:39:25;;;;;;;20.25;18.30;;;;;;;-3.32;100.00;99258.38;10404801;28;20075;-71
2022/12/11 06:44:27;;;;;;;23.40;17.13;;;;;;;-3.15;100.00;99262.00;10422326;28;20042;-72
2022/12/11 06:49:29;;;;;;;22.20;18.23;;;;;;;-3.24;100.00;99255.91;10426685;28;20045;-72
2022/12/11 06:54:31;;;;;;;20.77;17.92;;;;;;;-3.15;100.00;99262.00;10405007;28;20487;-71
2022/12/11 06:59:32;;;;;;;19.23;17.17;;;;;;;-3.35;100.00;99266.06;10422068;28;20046;-70
2022/12/11 07:04:34;;;;;;;20.08;17.83;;;;;;;-3.37;100.00;99272.88;10421876;28;20038;-71
2022/12/11 07:09:39;;;;;;;23.42;17.42;;;;;;;-3.38;100.00;99279.72;10405264;28;20049;-71
2022/12/11 07:14:41;;;;;;;19.02;16.83;;;;;;;-3.30;100.00;99282.41;10423030;28;20042;-71
2022/12/11 07:19:43;;;;;;;19.27;17.05;;;;;;;-3.38;100.00;99279.72;10402810;28;20057;-70
2022/12/11 07:24:45;;;;;;;26.15;20.85;;;;;;;-3.40;100.00;99285.72;10420679;28;20083;-71
2022/12/11 07:29:46;;;;;;;37.33;23.20;;;;;;;-3.41;100.00;99282.28;10421399;28;20045;-70
2022/12/11 07:34:48;;;;;;;27.33;20.13;;;;;;;-3.30;100.00;99283.25;10422564;28;20125;-70
2022/12/11 07:39:53;;;;;;;22.55;18.75;;;;;;;-3.39;100.00;99290.00;10419752;28;20068;-71
2022/12/11 07:44:55;;;;;;;27.55;19.52;;;;;;;-3.27;98.24;99289.28;10419203;28;20095;-71
2022/12/11 07:49:58;;;;;;;20.27;18.15;;;;;;;-3.42;99.14;99298.50;10401720;28;20124;-71
2022/12/11 07:55:00;;;;;;;22.73;19.70;;;;;;;-3.31;98.63;99296.97;10421225;28;20044;-70
2022/12/11 08:00:04;;;;;;;22.77;18.65;;;;;;;-3.45;98.76;99303.63;10402108;28;20128;-71
2022/12/11 08:05:12;;;;;;;22.70;16.55;;;;;;;-3.36;98.47;99297.75;10405838;22;20444;-71
2022/12/11 08:10:14;;;;;;;19.85;17.38;;;;;;;-3.18;97.00;99303.09;10326826;28;20133;-71
2022/12/11 08:15:16;;;;;;;20.20;16.98;;;;;;;-3.28;96.85;99301.25;10342306;28;20038;-72
2022/12/11 08:20:18;;;;;;;22.10;17.52;;;;;;;-3.48;98.45;99302.72;10341909;28;20415;-71
2022/12/11 08:25:19;;;;;;;26.00;20.38;;;;;;;-3.22;97.56;99298.78;10342084;28;20396;-72
2022/12/11 08:30:21;;;;;;;24.30;18.80;;;;;;;-3.44;99.28;99291.66;10342875;28;20407;-72
2022/12/11 08:35:24;;;;;;;20.00;17.77;;;;;;;-3.42;98.20;99295.94;10343977;28;20053;-73
2022/12/11 08:40:26;;;;;;;18.63;16.27;;;;;;;-3.50;98.21;99288.97;10324690;28;20038;-72
2022/12/11 08:45:28;;;;;;;17.98;16.13;;;;;;;-3.33;97.36;99279.78;10322110;28;20039;-72
2022/12/11 08:50:30;;;;;;;21.80;17.27;;;;;;;-3.55;97.82;99282.09;10322094;28;20046;-73
2022/12/11 08:55:32;;;;;;;19.63;17.58;;;;;;;-3.52;97.92;99288.13;10339290;28;20038;-72
2022/12/11 09:00:34;;;;;;;22.15;17.17;;;;;;;-3.39;98.39;99284.84;10322591;28;20046;-71
2022/12/11 09:05:37;;;;;;;20.35;17.27;;;;;;;-3.30;97.97;99287.53;10339306;28;20093;-71
2022/12/11 09:10:38;;;;;;;27.55;18.27;;;;;;;-3.13;97.13;99285.16;10334074;28;20053;-71
2022/12/11 09:15:40;;;;;;;20.15;16.98;;;;;;;-3.19;97.34;99297.94;10335415;28;20046;-70
2022/12/11 09:20:42;;;;;;;17.13;15.23;;;;;;;-3.34;97.98;99296.03;10335535;28;20048;-70
2022/12/11 09:25:44;;;;;;;19.27;16.48;;;;;;;-3.33;97.90;99295.19;10322433;28;20068;-71
2022/12/11 09:30:46;;;;;;;19.80;16.27;;;;;;;-3.43;98.68;99290.81;10322768;28;20046;-71
2022/12/11 09:36:01;;;;;;;17.05;14.95;;;;;;;-3.10;96.18;99278.34;10322052;28;20077;-71
2022/12/11 09:41:21;;;;;;;15.23;13.68;;;;;;;-3.13;94.60;99277.44;10340624;28;20042;-71
2022/12/11 09:46:24;;;;;;;15.65;14.05;;;;;;;-2.87;95.28;99282.88;10339900;28;20053;-72
2022/12/11 09:51:50;;;;;;;15.55;13.95;;;;;;;-2.82;94.64;99282.06;10338265;28;20134;-71
2022/12/11 09:57:06;;;;;;;16.42;14.05;;;;;;;-3.18;94.18;99277.41;10324296;28;20050;-70
2022/12/11 10:02:34;;;;;;;15.80;14.27;;;;;;;-3.23;94.29;99279.06;10346473;28;20050;-71
2022/12/11 10:07:55;;;;;;;15.63;14.02;;;;;;;-3.12;93.88;99276.59;10328653;28;20051;-71
2022/12/11 10:13:24;;;;;;;15.82;13.70;;;;;;;-2.98;92.51;99271.59;10346034;28;20385;-72
2022/12/11 10:18:28;;;;;;;15.73;14.05;;;;;;;-3.07;94.55;99260.38;10344461;28;20049;-71
2022/12/11 10:23:37;;;;;;;15.70;13.93;;;;;;;-2.85;93.74;99256.31;10326294;28;20078;-70
2022/12/11 10:28:39;;;;;;;16.17;14.40;;;;;;;-2.74;94.50;99243.56;10343344;28;20042;-70
2022/12/11 10:33:48;;;;;;;15.48;13.88;;;;;;;-2.60;93.53;99239.38;10323649;28;20271;-71
2022/12/11 10:38:50;;;;;;;16.52;14.63;;;;;;;-2.43;92.95;99248.97;10326803;28;20065;-71
2022/12/11 10:43:52;;;;;;;16.23;14.52;;;;;;;-2.61;90.82;99245.38;10344465;28;20049;-71
2022/12/11 10:48:57;;;;;;;16.33;14.57;;;;;;;-2.48;92.21;99246.31;10342181;28;20125;-72
2022/12/11 10:54:05;;;;;;;16.25;14.63;;;;;;;-2.28;90.28;99236.19;10323823;28;20471;-72
2022/12/11 10:59:34;;;;;;;17.55;15.80;;;;;;;-2.17;89.80;99241.41;10341400;28;20046;-72
2022/12/11 11:04:37;;;;;;;15.38;13.98;;;;;;;-1.93;85.12;99232.97;10324851;28;20038;-73
2022/12/11 11:09:40;;;;;;;19.08;15.35;;;;;;;-2.12;85.91;99226.88;10340752;28;20100;-73
2022/12/11 11:14:42;;;;;;;17.80;14.13;;;;;;;-2.46;86.90;99220.63;10324943;28;20046;-74
2022/12/11 11:19:47;;;;;;;14.20;12.70;;;;;;;-2.33;87.15;99214.72;10341864;28;20054;-72
2022/12/11 11:24:57;;;;;;;13.27;11.98;;;;;;;-2.14;85.13;99205.38;10324669;28;20053;-72
2022/12/11 11:30:16;;;;;;;18.77;11.95;;;;;;;-2.40;84.15;99202.63;10341602;28;20052;-73
2022/12/11 11:35:21;;;;;;;14.77;13.38;;;;;;;-2.62;87.23;99206.75;10341219;28;20073;-72
2022/12/11 11:40:26;;;;;;;15.88;13.88;;;;;;;-2.34;87.09;99202.69;10322757;28;20061;-73
2022/12/11 11:45:55;;;;;;;15.35;13.02;;;;;;;-2.42;86.70;99199.22;10341546;28;20042;-72
2022/12/11 11:50:57;;;;;;;15.00;12.75;;;;;;;-2.36;85.75;99194.09;10323188;28;20050;-73
2022/12/11 11:56:13;;;;;;;13.68;12.27;;;;;;;-2.13;84.07;99182.19;10340807;28;20045;-73
2022/12/11 12:01:17;;;;;;;14.20;12.50;;;;;;;-1.62;80.62;99167.00;10339617;28;20042;-72
2022/12/11 12:06:34;;;;;;;15.57;14.18;;;;;;;-1.65;81.16;99174.69;10321548;28;20389;-73
2022/12/11 12:11:44;;;;;;;17.05;15.25;;;;;;;-1.64;81.07;99181.56;10321610;28;20138;-73
2022/12/11 12:16:55;;;;;;;16.73;14.88;;;;;;;-1.73;81.93;99173.81;10321618;28;20057;-72
2022/12/11 12:22:24;;;;;;;16.30;14.57;;;;;;;-1.78;80.74;99174.66;10339185;28;20038;-72
2022/12/11 12:27:43;;;;;;;21.27;17.90;;;;;;;-2.12;84.62;99168.50;10322793;28;20101;-71
2022/12/11 12:33:06;;;;;;;16.30;14.60;;;;;;;-2.05;84.34;99174.53;10339687;28;20043;-72
2022/12/11 12:38:26;;;;;;;17.17;15.13;;;;;;;-2.11;86.40;99169.34;10321741;28;20080;-72
2022/12/11 12:43:33;;;;;;;14.70;13.00;;;;;;;-2.22;85.48;99160.69;10319123;28;20046;-72
2022/12/11 12:48:35;;;;;;;16.92;15.02;;;;;;;-2.46;86.49;99162.28;10335290;28;20060;-70
2022/12/11 12:53:38;;;;;;;17.95;16.15;;;;;;;-2.71;89.35;99161.25;10336589;28;20046;-71
2022/12/11 12:58:42;;;;;;;17.92;15.93;;;;;;;-2.64;90.03;99150.16;10339156;28;20057;-72
2022/12/11 13:03:58;;;;;;;15.75;14.25;;;;;;;-2.56;86.62;99148.50;10338840;28;20049;-71
2022/12/11 13:09:17;;;;;;;15.95;14.02;;;;;;;-2.55;87.21;99145.06;10320050;28;20069;-72
2022/12/11 13:14:22;;;;;;;15.15;13.65;;;;;;;-2.54;88.52;99148.50;10340054;28;20049;-72
2022/12/11 13:19:26;;;;;;;18.27;16.45;;;;;;;-2.70;89.56;99142.41;10337909;28;20049;-71
2022/12/11 13:24:30;;;;;;;19.02;17.08;;;;;;;-2.95;92.11;99136.22;10337463;28;20046;-71
2022/12/11 13:29:40;;;;;;;19.58;15.63;;;;;;;-2.94;93.05;99140.50;10318868;28;20409;-71
2022/12/11 13:34:57;;;;;;;19.20;17.33;;;;;;;-2.82;92.97;99147.47;10336351;28;20097;-72
2022/12/11 13:40:06;;;;;;;18.15;16.55;;;;;;;-2.55;90.49;99145.06;10336817;28;20034;-71
2022/12/11 13:45:20;;;;;;;17.63;15.38;;;;;;;-2.52;88.27;99146.81;10336538;28;20066;-71
2022/12/11 13:50:29;;;;;;;16.23;14.73;;;;;;;-2.74;88.32;99155.25;10319072;28;20054;-71
2022/12/11 13:55:33;;;;;;;18.55;16.33;;;;;;;-2.70;91.08;99169.81;10319232;28;20045;-71
2022/12/11 14:00:35;;;;;;;21.75;19.15;;;;;;;-2.61;90.58;99163.06;10335674;28;20182;-71
2022/12/11 14:05:37;;;;;;;18.30;16.60;;;;;;;-2.66;92.92;99157.00;10335574;28;20042;-71
2022/12/11 14:10:39;;;;;;;16.92;15.38;;;;;;;-2.52;87.43;99157.13;10335407;28;20046;-71
2022/12/11 14:15:44;;;;;;;18.02;15.93;;;;;;;-2.76;89.22;99151.78;10336340;28;20042;-71
2022/12/11 14:20:53;;;;;;;17.80;16.00;;;;;;;-2.52;88.66;99162.25;10336021;28;20077;-72
2022/12/11 14:26:02;;;;;;;22.23;17.50;;;;;;;-2.65;91.10;99168.16;10317648;28;20097;-71
2022/12/11 14:31:05;;;;;;;20.23;17.30;;;;;;;-2.84;93.01;99156.84;10336431;28;20046;-71
2022/12/11 14:36:07;;;;;;;20.92;18.73;;;;;;;-2.94;94.60;99157.66;10335276;28;20038;-71
2022/12/11 14:41:18;;;;;;;21.50;17.05;;;;;;;-2.80;94.72;99164.59;10318396;28;20141;-72
2022/12/11 14:46:34;;;;;;;21.20;18.95;;;;;;;-2.90;93.72;99164.53;10342606;28;20061;-71
2022/12/11 14:51:38;;;;;;;23.02;18.75;;;;;;;-2.97;95.41;99173.88;10341826;28;20492;-71
2022/12/11 14:56:44;;;;;;;21.58;19.48;;;;;;;-3.24;96.93;99179.66;10342077;28;20046;-72
2022/12/11 15:01:59;;;;;;;21.27;18.45;;;;;;;-3.27;97.07;99178.78;10343417;28;20449;-71
2022/12/11 15:07:20;;;;;;;22.23;19.92;;;;;;;-3.35;98.10;99173.56;10341790;28;20109;-71
2022/12/11 15:12:22;;;;;;;27.52;20.88;;;;;;;-3.45;98.43;99174.28;10324734;28;20042;-70
2022/12/11 15:17:26;;;;;;;26.25;20.05;;;;;;;-3.47;99.19;99179.41;10341884;28;20050;-71
2022/12/11 15:22:34;;;;;;;23.65;21.20;;;;;;;-3.49;98.95;99177.69;10323384;28;20105;-71
2022/12/11 15:27:38;;;;;;;29.80;20.15;;;;;;;-3.59;99.68;99179.28;10341106;28;20054;-71
2022/12/11 15:32:40;;;;;;;24.17;20.27;;;;;;;-3.31;97.49;99181.31;10323392;28;20045;-71
2022/12/11 15:37:52;;;;;;;21.42;19.17;;;;;;;-3.28;95.89;99175.31;10340891;28;20078;-71
2022/12/11 15:42:54;;;;;;;25.15;20.67;;;;;;;-3.12;93.30;99168.63;10341629;28;20089;-72
2022/12/11 15:47:58;;;;;;;28.60;20.48;;;;;;;-3.41;95.99;99166.66;10323816;28;20455;-71
2022/12/11 15:53:00;;;;;;;21.58;19.25;;;;;;;-3.48;95.49;99175.13;10340677;28;20089;-70
2022/12/11 15:58:04;;;;;;;23.13;20.25;;;;;;;-3.37;95.61;99175.22;10340430;28;20057;-71
2022/12/11 16:03:10;;;;;;;21.27;19.15;;;;;;;-3.40;94.64;99177.78;10341986;28;20495;-70
2022/12/11 16:08:14;;;;;;;22.98;20.23;;;;;;;-3.22;94.42;99179.69;10340375;28;20084;-72
2022/12/11 16:13:16;;;;;;;27.20;20.67;;;;;;;-3.31;94.69;99181.31;10339686;28;20072;-72
2022/12/11 16:18:21;;;;;;;32.75;21.38;;;;;;;-3.62;96.34;99182.69;10339903;28;20042;-71
2022/12/11 16:23:23;;;;;;;28.25;21.88;;;;;;;-3.53;97.76;99187.06;10341374;28;20426;-72
2022/12/11 16:28:25;;;;;;;35.25;22.55;;;;;;;-3.73;98.43;99183.41;10339622;28;20034;-72
2022/12/11 16:33:27;;;;;;;36.85;22.38;;;;;;;-3.66;100.00;99183.50;10339773;28;20400;-71
2022/12/11 16:38:28;;;;;;;31.45;23.05;;;;;;;-3.63;99.36;99185.22;10339207;28;20074;-71
2022/12/11 16:43:31;;;;;;;32.22;21.27;;;;;;;-3.47;99.10;99191.41;10340128;28;20042;-70
2022/12/11 16:48:33;;;;;;;26.88;21.38;;;;;;;-3.32;97.27;99183.84;10340146;28;20483;-71
2022/12/11 16:53:35;;;;;;;26.77;20.83;;;;;;;-3.49;97.82;99177.69;10341362;28;20051;-72
2022/12/11 16:58:37;;;;;;;30.30;22.73;;;;;;;-3.62;99.18;99176.69;10340588;28;20060;-71
2022/12/11 17:03:40;;;;;;;32.17;23.77;;;;;;;-3.64;98.94;99184.34;10320694;28;20096;-70
2022/12/11 17:08:43;;;;;;;33.90;24.83;;;;;;;-3.72;100.00;99185.97;10339931;28;20050;-71
2022/12/11 17:13:45;;;;;;;38.97;26.02;;;;;;;-3.49;99.14;99187.97;10340015;28;20054;-71
2022/12/11 17:18:47;;;;;;;26.27;20.77;;;;;;;-3.53;97.87;99183.66;10339691;28;20125;-71
2022/12/11 17:23:49;;;;;;;26.23;21.45;;;;;;;-3.53;97.92;99192.22;10320622;28;20039;-72
2022/12/11 17:28:51;;;;;;;29.77;23.75;;;;;;;-3.59;98.76;99185.28;10319964;28;20053;-71
2022/12/11 17:33:53;;;;;;;35.13;22.92;;;;;;;-3.25;95.71;99177.06;10337472;28;20060;-71
2022/12/11 17:38:55;;;;;;;34.92;24.95;;;;;;;-3.18;95.92;99184.00;10337457;28;20053;-71
2022/12/11 17:43:57;;;;;;;36.03;24.45;;;;;;;-3.26;96.27;99185.63;10337722;28;20042;-71
2022/12/11 17:49:01;;;;;;;34.08;22.13;;;;;;;-3.38;98.11;99179.50;10336732;28;20050;-71
2022/12/11 17:54:03;;;;;;;31.13;22.88;;;;;;;-3.23;97.20;99191.69;10336138;28;20101;-72
2022/12/11 17:59:05;;;;;;;32.85;22.77;;;;;;;-3.55;97.66;99186.19;10336564;28;20049;-71
2022/12/11 18:04:07;;;;;;;34.70;21.50;;;;;;;-3.52;98.74;99193.06;10320144;28;20497;-72
2022/12/11 18:09:10;;;;;;;33.13;22.92;;;;;;;-3.19;95.42;99184.81;10336295;28;20042;-72
2022/12/11 18:14:12;;;;;;;35.97;24.45;;;;;;;-3.05;93.44;99186.69;10319427;28;20046;-72
2022/12/11 18:19:18;;;;;;;30.48;24.60;;;;;;;-3.30;96.37;99184.72;10342200;28;20074;-73
2022/12/11 18:24:21;;;;;;;27.90;23.17;;;;;;;-3.09;94.62;99184.09;10345174;28;20038;-72
2022/12/11 18:29:23;;;;;;;35.78;23.15;;;;;;;-3.36;95.55;99190.69;10345537;28;20206;-72
2022/12/11 18:34:25;;;;;;;25.58;22.05;;;;;;;-3.57;97.56;99190.44;10343317;28;20046;-72
2022/12/11 18:39:27;;;;;;;26.42;20.98;;;;;;;-3.51;97.60;99189.66;10344493;28;20053;-72
2022/12/11 18:44:29;;;;;;;24.58;20.65;;;;;;;-3.40;97.73;99188.06;10327593;28;20062;-72
2022/12/11 18:49:31;;;;;;;34.60;22.10;;;;;;;-3.25;95.48;99189.91;10327659;28;20042;-71
2022/12/11 18:54:34;;;;;;;38.40;22.95;;;;;;;-3.16;94.58;99188.28;10342277;28;20034;-71
2022/12/11 18:59:36;;;;;;;35.67;23.70;;;;;;;-3.20;95.32;99183.13;10341943;28;20062;-72
2022/12/11 19:04:38;;;;;;;46.70;27.98;;;;;;;-2.93;92.64;99175.66;10325058;28;20407;-72
2022/12/11 19:09:40;;;;;;;27.17;20.60;;;;;;;-3.13;94.08;99175.47;10325235;28;20057;-72
2022/12/11 19:14:48;;;;;;;39.65;24.77;;;;;;;-3.18;94.85;99169.44;10326121;28;20042;-71
2022/12/11 19:19:50;;;;;;;31.30;23.65;;;;;;;-3.00;93.97;99175.59;10341995;28;20065;-71
2022/12/11 19:24:51;;;;;;;39.25;21.55;;;;;;;-3.19;94.90;99172.84;10342046;28;20093;-71
2022/12/11 19:29:53;;;;;;;26.52;20.63;;;;;;;-3.40;96.51;99175.22;10340402;28;20046;-72
2022/12/11 19:34:56;;;;;;;30.80;22.38;;;;;;;-3.30;96.24;99174.47;10323589;28;20089;-73
2022/12/11 19:39:58;;;;;;;33.00;22.23;;;;;;;-3.20;95.29;99177.97;10323890;28;20105;-72
2022/12/11 19:45:01;;;;;;;29.00;21.35;;;;;;;-3.55;98.86;99178.47;10341508;28;20101;-72
2022/12/11 19:50:04;;;;;;;29.45;20.75;;;;;;;-3.61;100.00;99178.41;10322586;28;20105;-72
2022/12/11 19:55:06;;;;;;;33.40;22.90;;;;;;;-3.67;100.00;99176.66;10322160;28;20097;-72
2022/12/11 20:00:08;;;;;;;32.65;22.75;;;;;;;-3.65;100.00;99166.38;10339279;28;20046;-72
2022/12/11 20:05:12;;;;;;;32.30;21.77;;;;;;;-3.60;100.00;99175.84;10374145;22;20045;-71
2022/12/11 20:10:15;;;;;;;40.55;24.98;;;;;;;-3.64;100.00;99168.94;10419269;28;20099;-71
2022/12/11 20:15:19;;;;;;;40.17;22.83;;;;;;;-3.73;100.00;99173.97;10422934;28;20038;-71
2022/12/11 20:20:23;;;;;;;37.47;22.58;;;;;;;-3.73;100.00;99168.84;10418848;28;20080;-71
2022/12/11 20:25:26;;;;;;;41.17;24.92;;;;;;;-3.59;100.00;99169.00;10401244;28;20132;-71
2022/12/11 20:30:27;;;;;;;33.53;22.40;;;;;;;-3.74;100.00;99167.13;10385097;28;20053;-71
2022/12/11 20:35:29;;;;;;;33.85;22.60;;;;;;;-3.59;99.30;99176.72;10420376;28;20045;-72
2022/12/11 20:40:32;;;;;;;36.72;23.17;;;;;;;-3.76;99.68;99173.97;10401247;28;20037;-71
2022/12/11 20:45:33;;;;;;;32.00;21.30;;;;;;;-3.65;99.98;99174.94;10417325;28;20087;-72
2022/12/11 20:50:35;;;;;;;43.25;23.98;;;;;;;-3.82;100.00;99167.03;10417400;28;20496;-72
2022/12/11 20:55:39;;;;;;;33.05;23.25;;;;;;;-3.78;100.00;99170.50;10399510;28;20042;-71
2022/12/11 21:00:54;;;;;;;36.03;22.58;;;;;;;-3.60;99.81;99175.00;10420602;28;20099;-72
2022/12/11 21:05:58;;;;;;;42.05;23.88;;;;;;;-3.55;99.39;99173.34;10399586;28;20410;-72
2022/12/11 21:11:00;;;;;;;42.17;22.75;;;;;;;-3.72;100.00;99164.56;10418226;28;20061;-71
2022/12/11 21:16:06;;;;;;;46.10;24.60;;;;;;;-3.89;100.00;99166.97;10417512;28;20053;-71
2022/12/11 21:21:08;;;;;;;36.88;22.55;;;;;;;-3.61;100.00;99166.44;10419283;28;20614;-71
2022/12/11 21:26:10;;;;;;;43.20;24.92;;;;;;;-3.74;100.00;99158.56;10416503;28;20115;-70
2022/12/11 21:31:15;;;;;;;31.63;21.38;;;;;;;-3.59;100.00;99162.16;10419758;28;20053;-72
2022/12/11 21:36:17;;;;;;;30.73;21.25;;;;;;;-3.59;99.64;99154.44;10417010;28;20048;-73
2022/12/11 21:41:22;;;;;;;35.05;22.65;;;;;;;-3.66;100.00;99162.09;10417760;28;20052;-71
2022/12/11 21:46:26;;;;;;;30.08;21.63;;;;;;;-3.67;100.00;99150.97;10416591;28;20041;-71
2022/12/11 21:51:30;;;;;;;37.83;24.33;;;;;;;-3.54;99.91;99149.38;10417509;28;20045;-71
2022/12/11 21:56:39;;;;;;;32.83;22.20;;;;;;;-3.32;97.96;99140.16;10408532;28;20561;-72
2022/12/11 22:01:44;;;;;;;32.40;21.75;;;;;;;-3.60;99.11;99144.16;10426196;28;20505;-71
2022/12/11 22:06:46;;;;;;;29.60;22.65;;;;;;;-3.72;99.84;99138.88;10428956;28;20080;-72
2022/12/11 22:11:49;;;;;;;35.20;22.20;;;;;;;-3.51;98.51;99143.41;10425317;28;20037;-71
2022/12/11 22:16:58;;;;;;;32.55;21.83;;;;;;;-3.50;98.34;99148.53;10409074;28;20033;-72
2022/12/11 22:22:00;;;;;;;33.45;21.45;;;;;;;-3.50;98.76;99148.53;10427194;28;20050;-72
2022/12/11 22:27:02;;;;;;;35.25;23.52;;;;;;;-3.50;98.35;99145.97;10426533;28;20049;-70
2022/12/11 22:32:04;;;;;;;36.40;22.17;;;;;;;-3.41;97.19;99142.63;10406462;28;20044;-72
2022/12/11 22:37:07;;;;;;;34.58;22.50;;;;;;;-3.38;96.32;99134.97;10422290;28;20052;-72
2022/12/11 22:42:08;;;;;;;36.33;22.10;;;;;;;-3.34;96.90;99134.16;10422956;28;20045;-72
2022/12/11 22:47:10;;;;;;;45.35;24.88;;;;;;;-3.47;98.38;99134.88;10406914;28;20140;-71
2022/12/11 22:52:12;;;;;;;43.15;24.52;;;;;;;-3.47;98.93;99134.88;10421651;28;20052;-70
2022/12/11 22:57:14;;;;;;;40.25;25.00;;;;;;;-3.52;99.77;99139.97;10422484;28;20485;-71
2022/12/11 23:02:16;;;;;;;45.70;25.30;;;;;;;-3.66;100.00;99150.09;10421652;28;20076;-71
2022/12/11 23:07:18;;;;;;;48.20;26.10;;;;;;;-3.66;100.00;99146.69;10403951;28;20049;-72
2022/12/11 23:12:20;;;;;;;44.63;24.30;;;;;;;-3.35;99.48;99140.16;10406588;28;20104;-72